Time;durP1;ratioP1;P1;durP2;ratioP2;P2;SDS_P1;SDS_P2;PMS_P1;PMS_P2;Temp;Humidity;BMP_temperature;BMP_pressure;BME280_temperature;BME280_humidity;BME280_pressure;Samples;Min_cycle;Max_cycle;Signal;HPM_P1;HPM_P2
2022/08/20 00:00:54;;;;;;;31.10;27.70;;;;;25.50;100400.00;;;;2089698;28;20205;-53
2022/08/20 00:01:55;;;;;;;34.27;30.60;;;;;25.60;100397.00;;;;2096245;28;20574;-53
2022/08/20 00:03:00;;;;;;;32.40;28.90;;;;;25.60;100395.00;;;;2096070;28;20587;-53
2022/08/20 00:04:00;;;;;;;25.53;22.90;;;;;25.50;100394.00;;;;2096701;28;20215;-53
2022/08/20 00:05:00;;;;;;;31.80;28.47;;;;;25.50;100392.00;;;;2096758;28;21427;-53
2022/08/20 00:06:05;;;;;;;25.20;22.37;;;;;25.50;100390.00;;;;2093980;28;20700;-53
2022/08/20 00:07:06;;;;;;;35.40;31.30;;;;;25.50;100406.00;;;;2088590;28;20216;-52
2022/08/20 00:08:06;;;;;;;28.40;25.47;;;;;25.50;100406.00;;;;2088038;28;21228;-53
2022/08/20 00:09:07;;;;;;;32.03;28.40;;;;;25.50;100400.00;;;;2087915;28;20221;-54
2022/08/20 00:10:08;;;;;;;28.03;24.83;;;;;25.50;100406.00;;;;2095246;28;20847;-54
2022/08/20 00:11:10;;;;;;;33.70;30.10;;;;;25.50;100402.00;;;;2095790;28;20219;-53
2022/08/20 00:12:11;;;;;;;29.92;26.63;;;;;25.50;100433.00;;;;2096630;28;20442;-53
2022/08/20 00:13:16;;;;;;;24.20;21.65;;;;;25.50;100400.00;;;;2096630;28;20212;-53
2022/08/20 00:14:16;;;;;;;34.10;29.50;;;;;25.50;100399.00;;;;2092540;28;20680;-53
2022/08/20 00:15:20;;;;;;;26.90;24.03;;;;;25.50;100397.00;;;;2088411;28;20482;-53
2022/08/20 00:16:21;;;;;;;24.67;21.92;;;;;25.50;100398.00;;;;2088447;28;20213;-54
2022/08/20 00:17:21;;;;;;;25.50;22.73;;;;;25.50;100392.00;;;;2088002;28;20700;-53
2022/08/20 00:18:22;;;;;;;26.93;24.00;;;;;25.50;100396.00;;;;2087423;28;20455;-53
2022/08/20 00:19:22;;;;;;;29.53;25.67;;;;;25.50;100397.00;;;;2086566;28;20683;-53
2022/08/20 00:20:24;;;;;;;27.90;24.90;;;;;25.50;100390.00;;;;2088460;28;20227;-52
2022/08/20 00:21:25;;;;;;;27.00;24.20;;;;;25.50;100402.00;;;;2088033;28;20284;-53
2022/08/20 00:22:26;;;;;;;27.30;24.17;;;;;25.50;100416.00;;;;2087906;28;20880;-53
2022/08/20 00:23:27;;;;;;;29.60;25.20;;;;;25.50;100392.00;;;;2088309;28;20700;-53
2022/08/20 00:24:27;;;;;;;25.60;22.53;;;;;25.50;100395.00;;;;2088245;28;20259;-53
2022/08/20 00:25:27;;;;;;;25.40;22.70;;;;;25.50;100398.00;;;;2088401;28;20205;-53
2022/08/20 00:26:28;;;;;;;26.07;22.03;;;;;25.50;100395.00;;;;2088018;28;20684;-53
2022/08/20 00:27:28;;;;;;;23.50;21.00;;;;;25.50;100401.00;;;;2087997;28;20211;-52
2022/08/20 00:28:28;;;;;;;26.27;23.50;;;;;25.50;100395.00;;;;2088309;28;20223;-52
2022/08/20 00:29:29;;;;;;;24.00;21.50;;;;;25.50;100395.00;;;;2087945;28;20255;-53
2022/08/20 00:30:30;;;;;;;26.10;22.87;;;;;25.50;100406.00;;;;2088579;28;20236;-53
2022/08/20 00:31:31;;;;;;;24.63;21.30;;;;;25.50;100400.00;;;;2088395;28;20258;-52
2022/08/20 00:32:34;;;;;;;24.57;21.07;;;;;25.50;100400.00;;;;2094074;28;20489;-52
2022/08/20 00:33:35;;;;;;;22.77;20.33;;;;;25.50;100400.00;;;;2095835;28;20207;-53
2022/08/20 00:34:35;;;;;;;24.93;21.70;;;;;25.50;100402.00;;;;2095300;28;20453;-53
2022/08/20 00:35:38;;;;;;;22.30;20.10;;;;;25.50;100405.00;;;;2096117;28;20220;-53
2022/08/20 00:36:39;;;;;;;22.53;20.23;;;;;25.50;100409.00;;;;2096527;28;20212;-52
2022/08/20 00:37:39;;;;;;;22.03;19.60;;;;;25.50;100399.00;;;;2096138;28;20452;-52
2022/08/20 00:38:41;;;;;;;22.90;20.60;;;;;25.50;100403.00;;;;2096496;28;20212;-53
2022/08/20 00:39:41;;;;;;;20.87;18.60;;;;;25.50;100399.00;;;;2096300;28;20216;-53
2022/08/20 00:40:51;;;;;;;19.90;17.80;;;;;25.50;100398.00;;;;2093750;28;20713;-53
2022/08/20 00:41:51;;;;;;;22.17;19.27;;;;;25.60;100405.00;;;;2092651;28;20281;-52
2022/08/20 00:42:56;;;;;;;21.67;19.00;;;;;25.60;100406.00;;;;2096420;28;20587;-53
2022/08/20 00:44:04;;;;;;;20.10;18.00;;;;;25.50;100405.00;;;;2095917;28;20273;-53
2022/08/20 00:45:05;;;;;;;20.10;18.10;;;;;25.50;100407.00;;;;2095247;28;20451;-53
2022/08/20 00:46:22;;;;;;;19.47;17.37;;;;;25.50;100403.00;;;;2096717;28;20458;-53
2022/08/20 00:47:22;;;;;;;20.33;18.30;;;;;25.50;100399.00;;;;2087169;28;20213;-53
2022/08/20 00:48:28;;;;;;;20.97;18.07;;;;;25.50;100408.00;;;;2087953;28;20448;-53
2022/08/20 00:49:30;;;;;;;19.90;17.80;;;;;25.50;100404.00;;;;2088207;28;20209;-54
2022/08/20 00:50:34;;;;;;;19.53;17.63;;;;;25.50;100407.00;;;;2088097;28;20460;-53
2022/08/20 00:51:41;;;;;;;19.20;17.30;;;;;25.40;100399.00;;;;2087622;28;20487;-53
2022/08/20 00:52:43;;;;;;;18.47;16.40;;;;;25.00;100378.00;;;;2084910;28;20573;-53
2022/08/20 00:53:43;;;;;;;18.10;16.20;;;;;25.50;100402.00;;;;2087875;28;20454;-52
2022/08/20 00:54:48;;;;;;;19.00;17.03;;;;;25.50;100399.00;;;;2087522;28;20451;-52
2022/08/20 00:55:49;;;;;;;17.47;15.67;;;;;25.50;100406.00;;;;2086969;28;20255;-53
2022/08/20 00:56:51;;;;;;;17.50;15.53;;;;;25.50;100398.00;;;;2073674;28;20495;-52
2022/08/20 00:57:53;;;;;;;16.97;15.20;;;;;25.50;100404.00;;;;2061955;28;20273;-52
2022/08/20 00:58:53;;;;;;;17.50;15.60;;;;;25.50;100410.00;;;;2070246;28;20441;-52
2022/08/20 00:59:54;;;;;;;17.87;15.97;;;;;25.50;100401.00;;;;2083995;28;20447;-53
2022/08/20 01:00:55;;;;;;;17.03;15.27;;;;;25.50;100401.00;;;;2087836;28;20216;-53
2022/08/20 01:01:56;;;;;;;18.03;15.47;;;;;25.50;100402.00;;;;2078962;28;20467;-53
2022/08/20 01:02:58;;;;;;;16.57;14.87;;;;;25.50;100403.00;;;;2070321;28;20457;-52
2022/08/20 01:03:58;;;;;;;15.67;14.17;;;;;25.50;100403.00;;;;2087654;28;20487;-52
2022/08/20 01:04:58;;;;;;;17.30;15.50;;;;;25.50;100399.00;;;;2085236;28;20872;-53
2022/08/20 01:05:59;;;;;;;16.77;15.13;;;;;25.50;100403.00;;;;2079461;28;20593;-53
2022/08/20 01:06:59;;;;;;;15.77;14.17;;;;;25.50;100407.00;;;;2087256;28;20818;-53
2022/08/20 01:08:00;;;;;;;15.67;14.07;;;;;25.50;100406.00;;;;2086231;28;20220;-52
2022/08/20 01:09:01;;;;;;;15.80;14.10;;;;;25.50;100413.00;;;;2078922;28;20221;-53
2022/08/20 01:10:08;;;;;;;14.83;13.30;;;;;25.50;100420.00;;;;2079103;28;20285;-53
2022/08/20 01:11:11;;;;;;;14.40;13.00;;;;;25.50;100396.00;;;;2087148;28;20209;-53
2022/08/20 01:12:12;;;;;;;15.43;13.67;;;;;25.50;100401.00;;;;2088135;28;20544;-54
2022/08/20 01:13:14;;;;;;;14.57;13.07;;;;;25.50;100387.00;;;;2087439;28;20473;-53
2022/08/20 01:15:23;;;;;;;13.37;11.97;;;;;25.50;100387.00;;;;2095658;28;20458;-54
2022/08/20 01:16:27;;;;;;;14.63;12.77;;;;;25.50;100406.00;;;;2095339;28;20449;-53
2022/08/20 01:17:31;;;;;;;14.77;13.07;;;;;25.50;100408.00;;;;2087236;28;20447;-53
2022/08/20 01:18:31;;;;;;;14.10;12.70;;;;;25.50;100408.00;;;;2087853;28;20447;-53
2022/08/20 01:19:34;;;;;;;14.73;13.23;;;;;25.50;100403.00;;;;2087385;28;20440;-53
2022/08/20 01:20:40;;;;;;;13.37;12.07;;;;;25.50;100403.00;;;;2087645;28;20205;-54
2022/08/20 01:21:40;;;;;;;14.17;12.73;;;;;25.50;100410.00;;;;2085629;28;20452;-53
2022/08/20 01:23:34;;;;;;;13.20;11.90;;;;;25.50;100411.00;;;;2087328;28;20479;-52
2022/08/20 01:24:35;;;;;;;13.90;12.10;;;;;25.50;100418.00;;;;2073538;28;20213;-53
2022/08/20 01:25:48;;;;;;;12.83;11.53;;;;;25.50;100417.00;;;;2069973;28;20464;-53
2022/08/20 01:26:49;;;;;;;13.20;11.37;;;;;25.50;100412.00;;;;2078183;28;20444;-53
2022/08/20 01:27:49;;;;;;;12.60;11.40;;;;;25.60;100422.00;;;;2085775;28;20458;-54
2022/08/20 01:29:01;;;;;;;12.40;11.20;;;;;25.60;100414.00;;;;2094424;28;20251;-53
2022/08/20 01:30:01;;;;;;;11.57;10.47;;;;;25.60;100418.00;;;;2095190;28;20341;-53
2022/08/20 01:31:03;;;;;;;11.70;10.50;;;;;25.60;100417.00;;;;2095611;28;20500;-53
2022/08/20 01:32:04;;;;;;;13.70;10.20;;;;;25.60;100413.00;;;;2096037;28;20200;-53
2022/08/20 01:33:04;;;;;;;11.57;9.73;;;;;25.60;100418.00;;;;2096265;28;20485;-53
2022/08/20 01:34:06;;;;;;;10.60;9.50;;;;;25.50;100417.00;;;;2096229;28;20207;-53
2022/08/20 01:35:07;;;;;;;12.33;9.47;;;;;25.50;100415.00;;;;2095278;28;20303;-53
2022/08/20 01:36:08;;;;;;;9.90;8.90;;;;;25.50;100413.00;;;;2096174;28;20512;-52
2022/08/20 01:37:08;;;;;;;10.60;9.37;;;;;25.50;100418.00;;;;2087190;28;20522;-53
2022/08/20 01:38:08;;;;;;;10.27;9.07;;;;;25.50;100421.00;;;;2086427;28;20217;-53
2022/08/20 01:39:10;;;;;;;10.17;9.10;;;;;25.50;100417.00;;;;2096170;28;20212;-53
2022/08/20 01:40:12;;;;;;;11.67;10.50;;;;;25.50;100419.00;;;;2095993;28;20212;-53
2022/08/20 01:41:21;;;;;;;9.17;8.30;;;;;25.50;100426.00;;;;2087124;28;20989;-53
2022/08/20 01:42:30;;;;;;;11.75;9.45;;;;;25.50;100420.00;;;;2088618;28;21171;-52
2022/08/20 01:43:31;;;;;;;10.40;9.07;;;;;25.50;100427.00;;;;2084374;28;20299;-53
2022/08/20 01:44:31;;;;;;;9.27;8.27;;;;;25.50;100426.00;;;;2095280;28;20447;-53
2022/08/20 01:45:32;;;;;;;9.53;8.63;;;;;25.40;100424.00;;;;2095407;28;20315;-54
2022/08/20 01:46:36;;;;;;;9.60;8.63;;;;;25.50;100428.00;;;;2096155;28;20215;-53
2022/08/20 01:47:37;;;;;;;10.80;9.70;;;;;25.50;100424.00;;;;2094459;28;20875;-52
2022/08/20 01:48:37;;;;;;;9.10;8.20;;;;;25.40;100425.00;;;;2094581;28;20490;-53
2022/08/20 01:49:42;;;;;;;9.97;9.13;;;;;25.50;100430.00;;;;2096131;28;21070;-53
2022/08/20 01:50:45;;;;;;;9.00;8.10;;;;;25.50;100430.00;;;;2095230;28;20215;-53
2022/08/20 01:51:46;;;;;;;8.93;8.03;;;;;25.50;100436.00;;;;2087387;28;20466;-53
2022/08/20 01:52:56;;;;;;;9.33;8.43;;;;;25.50;100437.00;;;;2086115;28;20842;-54
2022/08/20 01:53:58;;;;;;;9.20;7.97;;;;;25.50;100428.00;;;;2088593;28;20613;-53
2022/08/20 01:54:59;;;;;;;9.40;8.47;;;;;25.50;100410.00;;;;2094866;28;20992;-52
2022/08/20 01:56:01;;;;;;;9.37;8.47;;;;;25.50;100433.00;;;;2095509;28;20457;-53
2022/08/20 01:57:10;;;;;;;9.20;8.30;;;;;25.50;100431.00;;;;2095962;28;20228;-53
2022/08/20 01:58:11;;;;;;;8.80;7.93;;;;;25.50;100432.00;;;;2095145;28;20451;-52
2022/08/20 01:59:11;;;;;;;9.20;8.30;;;;;25.50;100432.00;;;;2095972;28;20470;-52
2022/08/20 02:00:14;;;;;;;9.30;8.40;;;;;25.50;100429.00;;;;2095397;28;20259;-55
2022/08/20 02:01:28;;;;;;;7.97;7.27;;;;;25.50;100434.00;;;;2095399;28;20220;-53
2022/08/20 02:02:28;;;;;;;9.17;7.90;;;;;25.40;100422.00;;;;2088533;28;20986;-53
2022/08/20 02:03:29;;;;;;;8.27;7.47;;;;;25.40;100414.00;;;;2095293;28;20450;-53
2022/08/20 02:04:30;;;;;;;8.40;7.53;;;;;25.40;100431.00;;;;2095889;28;20245;-52
2022/08/20 02:05:31;;;;;;;8.47;7.60;;;;;25.40;100435.00;;;;2084657;28;20688;-54
2022/08/20 02:06:33;;;;;;;8.20;7.40;;;;;25.40;100430.00;;;;2094414;28;20493;-53
2022/08/20 02:07:34;;;;;;;8.03;7.23;;;;;25.40;100428.00;;;;2094259;28;20461;-53
2022/08/20 02:08:34;;;;;;;8.00;7.20;;;;;25.40;100434.00;;;;2095261;28;20562;-53
2022/08/20 02:09:36;;;;;;;8.50;7.33;;;;;25.40;100434.00;;;;2095199;28;20212;-53
2022/08/20 02:10:36;;;;;;;7.97;7.20;;;;;25.50;100435.00;;;;2095293;28;20220;-53
2022/08/20 02:11:37;;;;;;;7.53;6.80;;;;;25.40;100432.00;;;;2095430;28;20539;-54
2022/08/20 02:12:38;;;;;;;8.13;6.90;;;;;25.40;100431.00;;;;2095129;28;20216;-53
2022/08/20 02:13:39;;;;;;;7.50;6.80;;;;;25.40;100424.00;;;;2095915;28;20684;-53
2022/08/20 02:14:41;;;;;;;7.53;6.73;;;;;25.40;100432.00;;;;2094914;28;20450;-52
2022/08/20 02:15:41;;;;;;;7.93;7.23;;;;;25.50;100436.00;;;;2095143;28;20911;-53
2022/08/20 02:16:43;;;;;;;8.20;7.27;;;;;25.50;100434.00;;;;2095872;28;20469;-53
2022/08/20 02:17:43;;;;;;;7.90;7.13;;;;;25.40;100432.00;;;;2094774;28;20568;-53
2022/08/20 02:18:43;;;;;;;7.20;6.50;;;;;25.40;100425.00;;;;2095484;28;20463;-53
2022/08/20 02:19:46;;;;;;;7.97;7.20;;;;;25.40;100429.00;;;;2095519;28;20215;-53
2022/08/20 02:20:46;;;;;;;7.07;6.37;;;;;25.40;100435.00;;;;2086857;28;20213;-52
2022/08/20 02:21:50;;;;;;;7.20;6.50;;;;;25.40;100432.00;;;;2086770;28;21252;-53
2022/08/20 02:22:55;;;;;;;7.87;6.47;;;;;25.40;100428.00;;;;2087218;28;20293;-53
2022/08/20 02:23:55;;;;;;;7.00;6.40;;;;;25.40;100435.00;;;;2094746;28;20516;-52
2022/08/20 02:24:56;;;;;;;7.13;6.43;;;;;25.40;100426.00;;;;2095686;28;20454;-53
2022/08/20 02:25:56;;;;;;;7.23;6.53;;;;;25.40;100425.00;;;;2094760;28;20281;-53
2022/08/20 02:26:56;;;;;;;6.70;6.20;;;;;25.40;100423.00;;;;2095057;28;20326;-52
2022/08/20 02:27:57;;;;;;;7.70;6.90;;;;;25.40;100430.00;;;;2094819;28;20236;-53
2022/08/20 02:28:58;;;;;;;7.03;6.33;;;;;25.50;100434.00;;;;2095617;28;20313;-53
2022/08/20 02:29:58;;;;;;;7.20;6.50;;;;;25.50;100428.00;;;;2095769;28;21094;-53
2022/08/20 02:31:00;;;;;;;7.50;6.80;;;;;25.50;100432.00;;;;2095445;28;20455;-52
2022/08/20 02:32:01;;;;;;;6.60;6.10;;;;;25.50;100430.00;;;;2095307;28;20243;-53
2022/08/20 02:33:02;;;;;;;5.87;5.30;;;;;25.50;100429.00;;;;2095539;28;20465;-53
2022/08/20 02:34:03;;;;;;;6.87;6.17;;;;;25.50;100428.00;;;;2095621;28;20227;-53
2022/08/20 02:35:07;;;;;;;5.77;5.27;;;;;25.50;100433.00;;;;2089719;28;20490;-55
2022/08/20 02:36:09;;;;;;;6.20;5.60;;;;;25.50;100434.00;;;;2095634;28;20470;-52
2022/08/20 02:37:10;;;;;;;6.53;5.90;;;;;25.40;100430.00;;;;2095659;28;20454;-53
2022/08/20 02:38:10;;;;;;;7.40;5.90;;;;;25.50;100432.00;;;;2094699;28;20478;-53
2022/08/20 02:39:11;;;;;;;6.50;6.00;;;;;25.50;100224.00;;;;2095491;28;20478;-55
2022/08/20 02:40:14;;;;;;;5.83;5.33;;;;;25.50;100433.00;;;;2095174;28;20216;-53
2022/08/20 02:41:15;;;;;;;6.10;5.60;;;;;25.40;100423.00;;;;2095639;28;20457;-53
2022/08/20 02:42:15;;;;;;;6.00;5.40;;;;;25.50;100422.00;;;;2095723;28;20910;-53
2022/08/20 02:43:17;;;;;;;6.20;5.43;;;;;25.40;100424.00;;;;2094853;28;20552;-53
2022/08/20 02:44:20;;;;;;;6.00;5.40;;;;;25.40;100436.00;;;;2094788;28;20573;-52
2022/08/20 02:45:21;;;;;;;6.00;5.47;;;;;25.40;100424.00;;;;2095338;28;20454;-53
2022/08/20 02:46:21;;;;;;;6.00;5.40;;;;;25.40;100427.00;;;;2095651;28;20454;-53
2022/08/20 02:47:22;;;;;;;6.17;5.53;;;;;25.40;100427.00;;;;2093909;28;20451;-53
2022/08/20 02:48:22;;;;;;;5.37;4.87;;;;;25.40;100422.00;;;;2095231;28;20219;-53
2022/08/20 02:49:23;;;;;;;5.60;5.10;;;;;25.40;100419.00;;;;2095585;28;20220;-53
2022/08/20 02:50:24;;;;;;;6.23;5.63;;;;;25.40;100422.00;;;;2095265;28;20587;-53
2022/08/20 02:51:24;;;;;;;6.20;5.53;;;;;25.40;100419.00;;;;2095370;28;20271;-53
2022/08/20 02:52:25;;;;;;;5.67;5.17;;;;;25.40;100419.00;;;;2094977;28;20454;-53
2022/08/20 02:53:25;;;;;;;6.40;5.80;;;;;25.40;100418.00;;;;2094793;28;20266;-54
2022/08/20 02:54:26;;;;;;;5.80;5.20;;;;;25.40;100420.00;;;;2094829;28;20214;-53
2022/08/20 02:55:26;;;;;;;4.67;4.27;;;;;25.40;100415.00;;;;2094910;28;20229;-52
2022/08/20 02:56:26;;;;;;;5.03;4.60;;;;;25.40;100420.00;;;;2095449;28;20220;-53
2022/08/20 02:57:27;;;;;;;5.03;4.60;;;;;25.50;100418.00;;;;2094573;28;20235;-52
2022/08/20 02:58:27;;;;;;;4.87;4.47;;;;;25.40;100424.00;;;;2086440;28;20225;-53
2022/08/20 02:59:27;;;;;;;5.00;4.57;;;;;25.50;100417.00;;;;2085523;28;20221;-53
2022/08/20 03:00:29;;;;;;;5.63;5.00;;;;;25.40;100336.00;;;;2094174;28;20293;-52
2022/08/20 03:01:30;;;;;;;5.30;4.80;;;;;25.40;100416.00;;;;2094083;28;20294;-53
2022/08/20 03:02:30;;;;;;;5.33;4.83;;;;;25.40;100419.00;;;;2093183;28;20478;-53
2022/08/20 03:03:31;;;;;;;4.53;4.13;;;;;25.40;100417.00;;;;2094499;28;20212;-53
2022/08/20 03:04:31;;;;;;;5.43;4.90;;;;;25.40;100419.00;;;;2094189;28;20272;-53
2022/08/20 03:05:32;;;;;;;5.00;4.60;;;;;25.50;100418.00;;;;2094849;28;20212;-53
2022/08/20 03:06:33;;;;;;;4.60;4.20;;;;;25.40;100419.00;;;;2095268;28;20223;-52
2022/08/20 03:07:44;;;;;;;5.23;4.57;;;;;25.40;100417.00;;;;2094070;28;20458;-53
2022/08/20 03:08:44;;;;;;;4.70;4.30;;;;;25.50;100418.00;;;;2092364;28;20231;-52
2022/08/20 03:09:44;;;;;;;4.60;4.20;;;;;25.40;100410.00;;;;2086197;28;20839;-53
2022/08/20 03:10:45;;;;;;;5.33;4.83;;;;;25.40;100414.00;;;;2086294;28;20583;-52
2022/08/20 03:11:45;;;;;;;4.97;4.53;;;;;25.40;100408.00;;;;2086175;28;20675;-53
2022/08/20 03:12:46;;;;;;;4.63;4.23;;;;;25.50;100408.00;;;;2086135;28;20266;-53
2022/08/20 03:13:46;;;;;;;4.67;4.27;;;;;25.50;100413.00;;;;2086496;28;20220;-53
2022/08/20 03:14:46;;;;;;;5.80;4.40;;;;;25.40;100409.00;;;;2085946;28;20306;-53
2022/08/20 03:15:52;;;;;;;5.63;4.27;;;;;25.40;100422.00;;;;2085794;28;20216;-53
2022/08/20 03:16:53;;;;;;;4.60;4.20;;;;;25.40;100419.00;;;;2086149;28;20217;-53
2022/08/20 03:17:53;;;;;;;4.00;3.60;;;;;25.40;100421.00;;;;2085765;28;20823;-54
2022/08/20 03:18:54;;;;;;;4.20;3.90;;;;;25.40;100420.00;;;;2086921;28;20236;-52
2022/08/20 03:19:54;;;;;;;4.10;3.70;;;;;25.40;100411.00;;;;2086266;28;20667;-53
2022/08/20 03:20:54;;;;;;;4.30;3.90;;;;;25.40;100417.00;;;;2086503;28;20213;-53
2022/08/20 03:21:55;;;;;;;4.43;4.03;;;;;25.40;100418.00;;;;2086680;28;20219;-53
2022/08/20 03:22:55;;;;;;;4.00;3.60;;;;;25.40;100416.00;;;;2087117;28;20209;-53
2022/08/20 03:23:55;;;;;;;4.47;4.07;;;;;25.40;100422.00;;;;2086959;28;20212;-52
2022/08/20 03:24:56;;;;;;;3.80;3.50;;;;;25.40;100413.00;;;;2086958;28;20213;-53
2022/08/20 03:25:56;;;;;;;4.17;3.87;;;;;25.40;100418.00;;;;2087045;28;20209;-53
2022/08/20 03:26:56;;;;;;;3.77;3.47;;;;;25.40;100420.00;;;;2086811;28;20217;-52
2022/08/20 03:27:57;;;;;;;3.57;3.27;;;;;25.40;100420.00;;;;2090832;28;20715;-53
2022/08/20 03:28:57;;;;;;;4.37;3.90;;;;;25.50;100419.00;;;;2095069;28;20311;-53
2022/08/20 03:29:58;;;;;;;6.23;3.90;;;;;25.50;100418.00;;;;2093458;28;20307;-53
2022/08/20 03:30:58;;;;;;;4.40;3.90;;;;;25.40;100423.00;;;;2091466;28;20231;-52
2022/08/20 03:31:58;;;;;;;3.83;3.43;;;;;25.40;100423.00;;;;2091845;28;20318;-54
2022/08/20 03:32:59;;;;;;;4.17;3.80;;;;;25.40;100423.00;;;;2087842;28;20219;-53
2022/08/20 03:33:59;;;;;;;4.20;3.80;;;;;25.40;100419.00;;;;2095273;28;20258;-53
2022/08/20 03:34:59;;;;;;;3.70;3.33;;;;;25.40;100427.00;;;;2095097;28;20216;-53
2022/08/20 03:36:00;;;;;;;3.90;3.30;;;;;25.50;100424.00;;;;2085395;28;20224;-53
2022/08/20 03:37:00;;;;;;;3.60;3.30;;;;;25.50;100422.00;;;;2087072;28;20223;-52
2022/08/20 03:38:00;;;;;;;3.80;3.50;;;;;25.40;100415.00;;;;2085737;28;20221;-53
2022/08/20 03:39:03;;;;;;;4.47;3.47;;;;;25.40;100423.00;;;;2086310;28;20229;-53
2022/08/20 03:40:09;;;;;;;3.80;3.50;;;;;25.10;100417.00;;;;2086218;28;20365;-53
2022/08/20 03:41:10;;;;;;;3.90;3.22;;;;;25.40;100422.00;;;;2086520;28;20483;-53
2022/08/20 03:42:10;;;;;;;3.90;3.07;;;;;25.40;100422.00;;;;2086238;28;20707;-53
2022/08/20 03:43:10;;;;;;;4.63;3.47;;;;;25.30;100415.00;;;;2086892;28;20680;-53
2022/08/20 03:44:11;;;;;;;3.73;3.43;;;;;25.40;100417.00;;;;2086893;28;20744;-52
2022/08/20 03:45:12;;;;;;;3.50;3.20;;;;;25.50;100412.00;;;;2086725;28;20212;-53
2022/08/20 03:46:12;;;;;;;4.03;3.70;;;;;25.40;100419.00;;;;2086988;28;20208;-53
2022/08/20 03:47:13;;;;;;;3.80;3.50;;;;;25.40;100403.00;;;;2086926;28;20443;-53
2022/08/20 03:48:15;;;;;;;3.50;3.00;;;;;25.40;100412.00;;;;2085575;28;20221;-53
2022/08/20 03:49:16;;;;;;;3.30;3.00;;;;;25.40;100413.00;;;;2086019;28;20248;-56
2022/08/20 03:50:17;;;;;;;4.63;3.30;;;;;25.40;100414.00;;;;2086883;28;20882;-53
2022/08/20 03:51:17;;;;;;;4.70;3.33;;;;;25.40;100420.00;;;;2086724;28;20580;-53
2022/08/20 03:52:18;;;;;;;3.60;3.30;;;;;25.40;100414.00;;;;2086851;28;20462;-53
2022/08/20 03:53:18;;;;;;;2.90;2.60;;;;;25.40;100413.00;;;;2087050;28;20209;-53
2022/08/20 03:54:19;;;;;;;4.20;3.77;;;;;25.40;100408.00;;;;2086913;28;20213;-54
2022/08/20 03:55:19;;;;;;;3.60;3.30;;;;;25.50;100406.00;;;;2086823;28;20205;-53
2022/08/20 03:56:20;;;;;;;3.27;2.53;;;;;25.40;100406.00;;;;2086046;28;20212;-52
2022/08/20 03:57:20;;;;;;;3.40;3.10;;;;;25.40;100405.00;;;;2085487;28;20232;-53
2022/08/20 03:58:20;;;;;;;3.60;3.30;;;;;25.40;100401.00;;;;2086062;28;20701;-52
2022/08/20 03:59:21;;;;;;;3.70;3.30;;;;;25.40;100403.00;;;;2086545;28;20208;-53
2022/08/20 04:00:38;;;;;;;4.10;2.83;;;;;25.40;100399.00;;;;2086791;28;20243;-53
2022/08/20 04:01:38;;;;;;;3.50;3.20;;;;;25.40;100394.00;;;;2086619;28;20219;-53
2022/08/20 04:02:39;;;;;;;3.93;3.43;;;;;25.40;100387.00;;;;2086901;28;20460;-53
2022/08/20 04:03:40;;;;;;;3.57;3.20;;;;;25.40;100392.00;;;;2086988;28;20239;-53
2022/08/20 04:04:40;;;;;;;3.60;3.30;;;;;25.40;100382.00;;;;2086782;28;20656;-52
2022/08/20 04:05:40;;;;;;;3.47;3.17;;;;;25.40;100389.00;;;;2086728;28;20217;-52
2022/08/20 04:06:41;;;;;;;3.33;3.03;;;;;25.40;100388.00;;;;2086763;28;20243;-52
2022/08/20 04:07:41;;;;;;;3.47;3.17;;;;;25.40;100389.00;;;;2085976;28;20484;-52
2022/08/20 04:08:42;;;;;;;3.67;3.30;;;;;25.40;100391.00;;;;2086944;28;20679;-52
2022/08/20 04:09:45;;;;;;;3.20;2.90;;;;;25.40;100394.00;;;;2087132;28;20692;-52
2022/08/20 04:10:46;;;;;;;3.73;3.40;;;;;25.40;100392.00;;;;2091654;28;20705;-52
2022/08/20 04:11:46;;;;;;;3.10;2.80;;;;;25.40;100401.00;;;;2094770;28;20443;-52
2022/08/20 04:12:47;;;;;;;3.30;3.00;;;;;25.40;100400.00;;;;2095123;28;20523;-52
2022/08/20 04:13:47;;;;;;;5.53;3.60;;;;;25.40;100399.00;;;;2094810;28;20611;-52
2022/08/20 04:14:48;;;;;;;3.20;2.93;;;;;25.40;100400.00;;;;2095031;28;20685;-52
2022/08/20 04:15:48;;;;;;;3.40;3.10;;;;;25.40;100404.00;;;;2094801;28;20223;-52
2022/08/20 04:16:48;;;;;;;3.53;3.23;;;;;25.40;100402.00;;;;2094415;28;20314;-52
2022/08/20 04:17:49;;;;;;;4.27;3.90;;;;;25.40;100403.00;;;;2093500;28;20220;-52
2022/08/20 04:18:49;;;;;;;3.50;3.20;;;;;25.40;100409.00;;;;2094049;28;21743;-56
2022/08/20 04:19:50;;;;;;;3.33;3.00;;;;;25.40;100402.00;;;;2095133;28;20292;-54
2022/08/20 04:20:50;;;;;;;3.30;3.00;;;;;25.40;100412.00;;;;2094725;28;20208;-54
2022/08/20 04:21:51;;;;;;;3.60;3.30;;;;;25.40;100408.00;;;;2094987;28;20200;-53
2022/08/20 04:22:52;;;;;;;3.90;3.60;;;;;25.40;100419.00;;;;2094786;28;20660;-52
2022/08/20 04:23:52;;;;;;;3.57;3.27;;;;;25.40;100412.00;;;;2093966;28;20731;-53
2022/08/20 04:24:52;;;;;;;3.37;3.07;;;;;25.40;100412.00;;;;2094341;28;20442;-52
2022/08/20 04:25:53;;;;;;;3.20;2.90;;;;;25.40;100422.00;;;;2094647;28;20219;-54
2022/08/20 04:26:53;;;;;;;3.33;3.03;;;;;25.40;100413.00;;;;2095107;28;20209;-53
2022/08/20 04:27:54;;;;;;;3.90;3.60;;;;;25.40;100411.00;;;;2094230;28;20208;-53
2022/08/20 04:28:54;;;;;;;3.40;3.10;;;;;25.40;100410.00;;;;2095040;28;20216;-53
2022/08/20 04:29:54;;;;;;;3.80;3.50;;;;;25.40;100409.00;;;;2094886;28;20200;-53
2022/08/20 04:30:57;;;;;;;4.27;3.43;;;;;25.40;100420.00;;;;2094612;28;20204;-54
2022/08/20 04:31:57;;;;;;;3.20;2.90;;;;;25.40;100418.00;;;;2094397;28;20287;-53
2022/08/20 04:32:58;;;;;;;3.93;3.63;;;;;25.40;100419.00;;;;2094103;28;20316;-52
2022/08/20 04:34:02;;;;;;;4.00;3.70;;;;;25.40;100422.00;;;;2094592;28;20216;-53
2022/08/20 04:35:07;;;;;;;5.23;3.60;;;;;25.40;100423.00;;;;2095079;28;20216;-53
2022/08/20 04:36:07;;;;;;;4.23;3.80;;;;;25.40;100433.00;;;;2095094;28;20470;-53
2022/08/20 04:37:07;;;;;;;5.10;4.13;;;;;25.40;100432.00;;;;2094917;28;20469;-53
2022/08/20 04:38:08;;;;;;;3.67;3.37;;;;;25.40;100440.00;;;;2093774;28;20222;-53
2022/08/20 04:39:08;;;;;;;4.07;3.67;;;;;25.40;100441.00;;;;2094474;28;20216;-53
2022/08/20 04:41:31;;;;;;;4.43;3.67;;;;;25.40;100444.00;;;;2094139;28;20240;-53
2022/08/20 04:42:36;;;;;;;4.17;3.77;;;;;25.40;100436.00;;;;2095303;28;20540;-54
2022/08/20 04:43:37;;;;;;;4.10;3.70;;;;;25.40;100444.00;;;;2095932;28;20633;-53
2022/08/20 04:44:38;;;;;;;4.00;3.70;;;;;25.40;100438.00;;;;2094606;28;20462;-54
2022/08/20 04:45:39;;;;;;;3.77;3.47;;;;;25.30;100436.00;;;;2095714;28;20219;-53
2022/08/20 04:46:39;;;;;;;3.53;3.23;;;;;25.30;100438.00;;;;2096067;28;20488;-53
2022/08/20 04:47:40;;;;;;;4.77;4.37;;;;;25.30;100441.00;;;;2094534;28;21075;-53
2022/08/20 04:48:40;;;;;;;4.17;3.77;;;;;25.30;100440.00;;;;2095846;28;20218;-52
2022/08/20 04:49:41;;;;;;;4.53;4.13;;;;;25.30;100434.00;;;;2096058;28;20455;-52
2022/08/20 04:50:42;;;;;;;3.63;3.33;;;;;25.40;100442.00;;;;2095652;28;20239;-52
2022/08/20 04:51:43;;;;;;;3.97;3.63;;;;;25.40;100439.00;;;;2095724;28;20204;-52
2022/08/20 04:52:43;;;;;;;3.70;3.27;;;;;25.40;100438.00;;;;2096083;28;20473;-52
2022/08/20 04:53:44;;;;;;;4.47;3.63;;;;;25.40;100443.00;;;;2096123;28;20208;-52
2022/08/20 04:54:46;;;;;;;4.07;3.70;;;;;25.40;100454.00;;;;2095740;28;20729;-51
2022/08/20 04:55:47;;;;;;;4.10;3.70;;;;;25.30;100456.00;;;;2087788;28;20205;-52
2022/08/20 04:56:48;;;;;;;3.70;3.33;;;;;25.40;100456.00;;;;2087662;28;20451;-52
2022/08/20 04:57:48;;;;;;;4.90;3.70;;;;;25.40;100456.00;;;;2086697;28;20246;-53
2022/08/20 04:58:49;;;;;;;3.50;3.20;;;;;25.40;100454.00;;;;2087588;28;20483;-53
2022/08/20 04:59:50;;;;;;;4.47;3.30;;;;;25.40;100457.00;;;;2087721;28;20213;-52
2022/08/20 05:00:55;;;;;;;4.30;3.90;;;;;25.40;100461.00;;;;2087445;28;20452;-53
2022/08/20 05:01:55;;;;;;;4.20;3.80;;;;;25.40;100463.00;;;;2087895;28;20458;-52
2022/08/20 05:02:56;;;;;;;3.80;3.50;;;;;25.40;100478.00;;;;2087507;28;20810;-55
2022/08/20 05:03:56;;;;;;;4.30;3.90;;;;;25.40;100463.00;;;;2087802;28;20209;-54
2022/08/20 05:04:57;;;;;;;4.20;3.80;;;;;25.40;100462.00;;;;2088028;28;20216;-54
2022/08/20 05:05:58;;;;;;;4.07;3.67;;;;;25.40;100459.00;;;;2088154;28;20251;-54